createdAt,value
2024-01-06T00:00:08.496Z,50.75
2024-01-06T00:01:07.770Z,49.08
2024-01-06T00:02:08.367Z,49.08
2024-01-06T00:03:08.468Z,50.25
2024-01-06T00:04:07.976Z,48.47
2024-01-06T00:05:07.156Z,48.89
2024-01-06T00:06:07.058Z,48.14
2024-01-06T00:07:07.691Z,48.45
2024-01-06T00:08:07.106Z,49.62
2024-01-06T00:09:08.353Z,48.58
2024-01-06T00:10:06.881Z,49.52
2024-01-06T00:11:06.888Z,48.68
2024-01-06T00:12:06.978Z,48.89
2024-01-06T00:13:06.890Z,47.93
2024-01-06T00:14:07.209Z,50.15
2024-01-06T00:15:07.543Z,48.89
2024-01-06T00:16:08.198Z,49.73
2024-01-06T00:17:08.210Z,50.56
2024-01-06T00:18:07.698Z,50.04
2024-01-06T00:19:07.702Z,50.98
2024-01-06T00:20:08.793Z,49.52
2024-01-06T00:21:07.488Z,49.73
2024-01-06T00:22:07.272Z,49.73
2024-01-06T00:23:06.970Z,49.31
2024-01-06T00:24:07.482Z,48.16
2024-01-06T00:25:07.453Z,47.74
2024-01-06T00:26:08.068Z,46.57
2024-01-06T00:27:08.118Z,44.27
2024-01-06T00:28:07.339Z,44.17
2024-01-06T00:29:07.331Z,44.69
2024-01-06T00:30:07.456Z,43.73
2024-01-06T00:31:08.168Z,42.58
2024-01-06T00:32:07.297Z,42.58
2024-01-06T00:33:08.680Z,42.27
2024-01-06T00:34:06.622Z,41.54
2024-01-06T00:35:07.020Z,41.73
2024-01-06T00:36:07.348Z,42.46
2024-01-06T00:37:08.453Z,42.14
2024-01-06T00:38:08.492Z,42.36
2024-01-06T00:39:07.233Z,41.94
2024-01-06T00:40:07.178Z,42.46
2024-01-06T00:41:07.861Z,42.14
2024-01-06T00:42:07.159Z,41.83
2024-01-06T00:43:07.173Z,42.77
2024-01-06T00:44:07.801Z,41.71
2024-01-06T00:45:07.138Z,42.44
2024-01-06T00:46:07.787Z,40.89
2024-01-06T00:47:07.801Z,41.30
2024-01-06T00:48:07.838Z,40.67
2024-01-06T00:49:07.824Z,40.56
2024-01-06T00:50:06.444Z,39.52
2024-01-06T00:51:06.506Z,40.56
2024-01-06T00:52:07.056Z,40.25
2024-01-06T00:53:07.022Z,41.40
2024-01-06T00:54:06.634Z,40.67
2024-01-06T00:55:06.487Z,40.98
2024-01-06T00:56:07.691Z,41.30
2024-01-06T00:57:07.737Z,40.56
2024-01-06T00:58:07.634Z,40.56
2024-01-06T00:59:06.989Z,39.42
2024-01-06T01:00:07.019Z,39.94
2024-01-06T01:01:07.088Z,40.05
2024-01-06T01:02:07.579Z,39.81
2024-01-06T01:03:07.622Z,39.40
2024-01-06T01:04:08.238Z,38.25
2024-01-06T01:05:06.879Z,39.09
2024-01-06T01:06:06.872Z,38.46
2024-01-06T01:07:06.141Z,39.38
2024-01-06T01:08:07.498Z,38.88
2024-01-06T01:09:06.169Z,38.65
2024-01-06T01:10:08.048Z,40.73
2024-01-06T01:11:07.452Z,38.86
2024-01-06T01:12:07.501Z,39.38
2024-01-06T01:13:07.445Z,39.69
2024-01-06T01:14:06.816Z,39.17
2024-01-06T01:15:07.478Z,38.55
2024-01-06T01:16:07.926Z,38.55
2024-01-06T01:17:07.364Z,37.71
2024-01-06T01:18:07.661Z,38.32
2024-01-06T01:19:06.668Z,37.49
2024-01-06T01:20:05.946Z,37.07
2024-01-06T01:21:06.689Z,36.34
2024-01-06T01:22:06.623Z,36.66
2024-01-06T01:23:06.613Z,37.07
2024-01-06T01:24:06.594Z,37.07
2024-01-06T01:25:06.619Z,37.47
2024-01-06T01:26:06.616Z,37.37
2024-01-06T01:27:06.667Z,37.68
2024-01-06T01:28:06.537Z,37.26
2024-01-06T01:29:07.221Z,37.78
2024-01-06T01:30:07.303Z,36.64
2024-01-06T01:31:06.750Z,37.37
2024-01-06T01:32:06.559Z,37.57
2024-01-06T01:33:06.566Z,37.37
2024-01-06T01:34:07.329Z,38.60
2024-01-06T01:35:06.465Z,37.78
2024-01-06T01:36:07.144Z,37.87
2024-01-06T01:37:06.422Z,37.04
2024-01-06T01:38:07.090Z,37.66
2024-01-06T01:39:07.120Z,36.31
2024-01-06T01:40:06.184Z,36.62
2024-01-06T01:41:06.410Z,36.41
2024-01-06T01:42:06.387Z,35.98
2024-01-06T01:43:07.589Z,36.81
2024-01-06T01:44:06.053Z,36.71
2024-01-06T01:45:08.272Z,37.24
2024-01-06T01:46:06.991Z,35.88
2024-01-06T01:47:07.541Z,33.48
2024-01-06T01:48:06.509Z,33.07
2024-01-06T01:49:07.628Z,31.18
2024-01-06T01:50:06.968Z,31.49
2024-01-06T01:51:07.510Z,30.54
2024-01-06T01:52:07.466Z,30.23
2024-01-06T01:53:07.428Z,30.54
2024-01-06T01:54:07.458Z,31.57
2024-01-06T01:55:07.402Z,30.84
2024-01-06T01:56:07.389Z,32.19
2024-01-06T01:57:07.439Z,32.40
2024-01-06T01:58:07.377Z,33.65
2024-01-06T01:59:06.823Z,33.22
2024-01-06T02:00:06.828Z,34.46
2024-01-06T02:01:06.897Z,35.60
2024-01-06T02:02:06.776Z,37.26
2024-01-06T02:03:06.193Z,37.05
2024-01-06T02:04:06.226Z,37.68
2024-01-06T02:05:06.151Z,39.75
2024-01-06T02:06:06.013Z,39.23
2024-01-06T02:07:06.024Z,40.38
2024-01-06T02:08:06.689Z,41.21
2024-01-06T02:09:05.305Z,41.92
2024-01-06T02:10:05.961Z,41.61
2024-01-06T02:11:06.646Z,43.37
2024-01-06T02:12:05.962Z,43.37
2024-01-06T02:13:05.943Z,43.68
2024-01-06T02:14:05.971Z,43.99
2024-01-06T02:15:06.769Z,44.62
2024-01-06T02:16:06.572Z,44.82
2024-01-06T02:17:06.553Z,44.31
2024-01-06T02:18:06.688Z,44.41
2024-01-06T02:19:06.626Z,44.62
2024-01-06T02:20:05.872Z,45.34
2024-01-06T02:21:05.843Z,46.80
2024-01-06T02:22:05.824Z,46.59
2024-01-06T02:23:05.813Z,47.83
2024-01-06T02:24:05.781Z,48.25
2024-01-06T02:25:06.479Z,46.59
2024-01-06T02:26:05.759Z,47.11
2024-01-06T02:27:05.738Z,47.31
2024-01-06T02:28:06.431Z,47.21
2024-01-06T02:29:05.112Z,47.00
2024-01-06T02:30:05.701Z,46.59
2024-01-06T02:31:05.895Z,46.48
2024-01-06T02:32:06.365Z,47.00
2024-01-06T02:33:06.434Z,47.21
2024-01-06T02:34:05.840Z,47.71
2024-01-06T02:35:06.341Z,47.29
2024-01-06T02:36:06.295Z,48.43
2024-01-06T02:37:04.886Z,48.95
2024-01-06T02:38:05.649Z,48.33
2024-01-06T02:39:06.262Z,49.37
2024-01-06T02:40:05.064Z,51.13
2024-01-06T02:41:05.379Z,51.44
2024-01-06T02:42:05.544Z,54.13
2024-01-06T02:43:05.546Z,53.20
2024-01-06T02:44:06.202Z,53.10
2024-01-06T02:45:04.991Z,54.44
2024-01-06T02:46:06.170Z,55.90
2024-01-06T02:47:06.202Z,56.29
2024-01-06T02:48:06.277Z,58.18
2024-01-06T02:49:06.214Z,56.73
2024-01-06T02:50:05.474Z,56.83
2024-01-06T02:51:04.959Z,57.53
2024-01-06T02:52:05.414Z,57.97
2024-01-06T02:53:05.046Z,57.56
2024-01-06T02:54:06.101Z,57.87
2024-01-06T02:55:06.044Z,57.24
2024-01-06T02:56:06.053Z,56.73
2024-01-06T02:57:06.017Z,58.70
2024-01-06T02:58:06.022Z,57.24
2024-01-06T02:59:05.995Z,58.49
2024-01-06T03:00:05.964Z,58.70
2024-01-06T03:01:05.516Z,58.80
2024-01-06T03:02:05.270Z,58.67
2024-01-06T03:03:05.285Z,59.71
2024-01-06T03:04:06.024Z,59.50
2024-01-06T03:05:05.931Z,62.51
2024-01-06T03:06:05.231Z,61.36
2024-01-06T03:07:05.214Z,61.16
2024-01-06T03:08:05.881Z,61.47
2024-01-06T03:09:04.453Z,62.09
2024-01-06T03:10:05.860Z,63.13
2024-01-06T03:11:05.831Z,63.34
2024-01-06T03:12:05.836Z,63.23
2024-01-06T03:13:05.802Z,64.37
2024-01-06T03:14:05.100Z,65.59
2024-01-06T03:15:05.108Z,67.24
2024-01-06T03:16:05.744Z,67.03
2024-01-06T03:17:05.746Z,67.86
2024-01-06T03:18:05.912Z,68.38
2024-01-06T03:19:05.810Z,68.28
2024-01-06T03:20:05.697Z,67.97
2024-01-06T03:21:05.682Z,67.45
2024-01-06T03:22:05.688Z,68.80
2024-01-06T03:23:05.659Z,70.25
2024-01-06T03:24:04.973Z,71.28
2024-01-06T03:25:04.472Z,70.25
2024-01-06T03:26:05.645Z,72.53
2024-01-06T03:27:05.644Z,72.91
2024-01-06T03:28:04.915Z,74.05
2024-01-06T03:29:04.904Z,74.67
2024-01-06T03:30:05.019Z,74.67
2024-01-06T03:31:04.917Z,75.29
2024-01-06T03:32:04.915Z,75.60
2024-01-06T03:33:04.930Z,75.29
2024-01-06T03:34:05.032Z,76.12
2024-01-06T03:35:04.844Z,75.81
2024-01-06T03:36:05.497Z,76.02
2024-01-06T03:37:04.796Z,75.71
2024-01-06T03:38:05.489Z,76.12
2024-01-06T03:39:04.809Z,76.84
2024-01-06T03:40:04.772Z,76.74
2024-01-06T03:41:05.424Z,76.74
2024-01-06T03:42:05.420Z,76.02
2024-01-06T03:43:04.945Z,78.30
2024-01-06T03:44:05.388Z,78.81
2024-01-06T03:45:04.660Z,78.81
2024-01-06T03:46:05.908Z,78.19
2024-01-06T03:47:04.697Z,78.61
2024-01-06T03:48:05.393Z,79.19
2024-01-06T03:49:04.634Z,79.23
2024-01-06T03:50:05.874Z,78.92
2024-01-06T03:51:05.310Z,79.71
2024-01-06T03:52:05.380Z,79.19
2024-01-06T03:53:05.263Z,79.50
2024-01-06T03:54:05.250Z,77.98
2024-01-06T03:55:05.245Z,78.50
2024-01-06T03:56:04.551Z,78.19
2024-01-06T03:57:03.801Z,78.50
2024-01-06T03:58:05.754Z,77.47
2024-01-06T03:59:05.722Z,74.88
2024-01-06T04:00:05.212Z,76.32
2024-01-06T04:01:04.739Z,75.71
2024-01-06T04:02:05.683Z,74.98
2024-01-06T04:03:05.674Z,74.53
2024-01-06T04:04:04.501Z,74.84
2024-01-06T04:05:05.663Z,74.88
2024-01-06T04:06:05.130Z,74.15
2024-01-06T04:07:04.397Z,72.60
2024-01-06T04:08:05.065Z,72.81
2024-01-06T04:09:04.382Z,72.71
2024-01-06T04:10:04.427Z,72.91
2024-01-06T04:11:05.011Z,72.60
2024-01-06T04:12:04.326Z,73.53
2024-01-06T04:13:03.603Z,73.74
2024-01-06T04:14:03.732Z,72.60
2024-01-06T04:15:04.993Z,70.53
2024-01-06T04:16:04.997Z,71.88
2024-01-06T04:17:04.350Z,71.98
2024-01-06T04:18:04.370Z,71.36
2024-01-06T04:19:04.313Z,71.98
2024-01-06T04:20:04.258Z,70.84
2024-01-06T04:21:04.196Z,69.39
2024-01-06T04:22:04.221Z,70.42
2024-01-06T04:23:04.151Z,71.56
2024-01-06T04:24:04.842Z,71.67
2024-01-06T04:25:04.852Z,71.94
2024-01-06T04:26:04.802Z,71.98
2024-01-06T04:27:04.166Z,67.83
2024-01-06T04:28:04.795Z,68.56
2024-01-06T04:29:03.590Z,69.49
2024-01-06T04:30:04.163Z,69.60
2024-01-06T04:31:05.240Z,69.39
2024-01-06T04:32:04.751Z,69.18
2024-01-06T04:33:04.784Z,68.77
2024-01-06T04:34:05.009Z,68.56
2024-01-06T04:35:04.026Z,66.80
2024-01-06T04:36:04.690Z,67.32
2024-01-06T04:37:03.348Z,66.69
2024-01-06T04:38:04.028Z,66.08
2024-01-06T04:39:04.646Z,65.04
2024-01-06T04:40:04.411Z,63.69
2024-01-06T04:41:03.645Z,64.11
2024-01-06T04:42:04.613Z,64.62
2024-01-06T04:43:03.912Z,63.79
2024-01-06T04:44:03.898Z,61.93
2024-01-06T04:45:03.872Z,61.72
2024-01-06T04:46:04.574Z,61.41
2024-01-06T04:47:03.898Z,62.35
2024-01-06T04:48:03.897Z,64.11
2024-01-06T04:49:03.963Z,64.31
2024-01-06T04:50:04.470Z,63.69
2024-01-06T04:51:04.470Z,63.07
2024-01-06T04:52:05.008Z,63.48
2024-01-06T04:53:03.039Z,64.00
2024-01-06T04:54:04.425Z,64.00
2024-01-06T04:55:03.777Z,65.56
2024-01-06T04:56:04.424Z,65.35
2024-01-06T04:57:03.000Z,65.01
2024-01-06T04:58:04.918Z,65.63
2024-01-06T04:59:03.498Z,65.35
2024-01-06T05:00:04.353Z,63.90
2024-01-06T05:01:04.471Z,63.38
2024-01-06T05:02:04.318Z,63.38
2024-01-06T05:03:04.890Z,62.66
2024-01-06T05:04:04.959Z,62.35
2024-01-06T05:05:03.575Z,62.66
2024-01-06T05:06:03.603Z,64.31
2024-01-06T05:07:03.537Z,64.52
2024-01-06T05:08:04.237Z,64.62
2024-01-06T05:09:03.552Z,64.83
2024-01-06T05:10:04.770Z,65.45
2024-01-06T05:11:04.768Z,65.53
2024-01-06T05:12:03.517Z,66.66
2024-01-06T05:13:04.715Z,65.25
2024-01-06T05:14:04.693Z,64.31
2024-01-06T05:15:04.750Z,64.59
2024-01-06T05:16:04.721Z,64.80
2024-01-06T05:17:03.440Z,65.22
2024-01-06T05:18:03.598Z,66.25
2024-01-06T05:19:03.487Z,67.49
2024-01-06T05:20:04.096Z,66.87
2024-01-06T05:21:03.391Z,67.39
2024-01-06T05:22:03.374Z,66.66
2024-01-06T05:23:03.353Z,66.97
2024-01-06T05:24:04.048Z,67.29
2024-01-06T05:25:04.040Z,67.80
2024-01-06T05:26:03.992Z,68.43
2024-01-06T05:27:03.342Z,68.84
2024-01-06T05:28:03.388Z,68.53
2024-01-06T05:29:03.307Z,67.80
2024-01-06T05:30:04.057Z,69.74
2024-01-06T05:31:04.030Z,66.97
2024-01-06T05:32:03.233Z,66.97
2024-01-06T05:33:03.357Z,67.29
2024-01-06T05:34:04.003Z,67.18
2024-01-06T05:35:03.448Z,67.49
2024-01-06T05:36:03.215Z,67.46
2024-01-06T05:37:03.829Z,68.70
2024-01-06T05:38:03.391Z,67.80
2024-01-06T05:39:03.853Z,66.35
2024-01-06T05:40:03.197Z,66.25
2024-01-06T05:41:03.782Z,66.22
2024-01-06T05:42:03.765Z,66.77
2024-01-06T05:43:03.189Z,66.22
2024-01-06T05:44:03.769Z,67.25
2024-01-06T05:45:03.731Z,65.32
2024-01-06T05:46:03.743Z,65.29
2024-01-06T05:47:03.066Z,65.91
2024-01-06T05:48:03.813Z,66.12
2024-01-06T05:49:03.824Z,67.05
2024-01-06T05:50:03.662Z,66.42
2024-01-06T05:51:03.078Z,67.57
2024-01-06T05:52:02.998Z,67.77
2024-01-06T05:53:03.650Z,65.39
2024-01-06T05:54:03.612Z,64.77
2024-01-06T05:55:02.310Z,65.39
2024-01-06T05:56:03.583Z,65.60
2024-01-06T05:57:02.865Z,66.32
2024-01-06T05:58:02.875Z,66.02
2024-01-06T05:59:02.894Z,66.22
2024-01-06T06:00:03.535Z,63.35
2024-01-06T06:01:02.805Z,64.15
2024-01-06T06:02:02.607Z,64.87
2024-01-06T06:03:02.864Z,65.50
2024-01-06T06:04:02.906Z,66.02
2024-01-06T06:05:02.804Z,66.84
2024-01-06T06:06:02.819Z,68.08
2024-01-06T06:07:03.563Z,67.15
2024-01-06T06:08:03.411Z,65.50
2024-01-06T06:09:02.737Z,66.42
2024-01-06T06:10:04.086Z,66.32
2024-01-06T06:11:03.668Z,66.74
2024-01-06T06:12:02.694Z,69.12
2024-01-06T06:13:02.717Z,67.36
2024-01-06T06:14:03.344Z,65.50
2024-01-06T06:15:03.320Z,66.42
2024-01-06T06:16:03.332Z,68.40
2024-01-06T06:17:03.299Z,68.80
2024-01-06T06:18:02.123Z,68.98
2024-01-06T06:19:02.760Z,68.77
2024-01-06T06:20:02.436Z,68.05
2024-01-06T06:21:02.488Z,68.88
2024-01-06T06:22:02.667Z,69.60
2024-01-06T06:23:03.774Z,70.36
2024-01-06T06:24:03.742Z,67.98
2024-01-06T06:25:03.752Z,66.53
2024-01-06T06:26:03.195Z,65.60
2024-01-06T06:27:03.184Z,66.42
2024-01-06T06:28:02.490Z,66.74
2024-01-06T06:29:03.705Z,67.36
2024-01-06T06:30:02.503Z,66.84
2024-01-06T06:31:03.300Z,67.15
2024-01-06T06:32:03.102Z,66.22
2024-01-06T06:33:01.778Z,65.50
2024-01-06T06:34:05.265Z,66.22
2024-01-06T06:35:04.104Z,65.50
2024-01-06T06:36:03.044Z,65.39
2024-01-06T06:37:03.036Z,65.50
2024-01-06T06:38:02.420Z,65.70
2024-01-06T06:39:02.357Z,67.85
2024-01-06T06:40:02.982Z,66.32
2024-01-06T06:41:02.400Z,66.02
2024-01-06T06:42:02.979Z,64.87
2024-01-06T06:43:02.348Z,65.19
2024-01-06T06:44:01.554Z,64.87
2024-01-06T06:45:02.951Z,63.74
2024-01-06T06:46:02.381Z,64.04
2024-01-06T06:47:02.886Z,64.04
2024-01-06T06:48:02.977Z,65.39
2024-01-06T06:49:02.511Z,64.64
2024-01-06T06:50:02.886Z,64.95
2024-01-06T06:51:02.221Z,64.95
2024-01-06T06:52:02.842Z,65.26
2024-01-06T06:53:02.199Z,66.02
2024-01-06T06:54:02.825Z,63.12
2024-01-06T06:55:02.116Z,63.22
2024-01-06T06:56:02.100Z,64.25
2024-01-06T06:57:02.768Z,64.46
2024-01-06T06:58:02.776Z,64.46
2024-01-06T06:59:02.731Z,64.02
2024-01-06T07:00:02.720Z,65.67
2024-01-06T07:01:02.833Z,65.88
2024-01-06T07:02:02.754Z,65.57
2024-01-06T07:03:02.190Z,66.29
2024-01-06T07:04:02.697Z,66.39
2024-01-06T07:05:02.812Z,68.77
2024-01-06T07:06:01.290Z,67.74
2024-01-06T07:07:02.686Z,64.32
2024-01-06T07:08:01.918Z,65.47
2024-01-06T07:09:01.953Z,67.43
2024-01-06T07:10:02.625Z,67.64
2024-01-06T07:11:02.593Z,67.64
2024-01-06T07:12:02.558Z,67.22
2024-01-06T07:13:01.874Z,65.99
2024-01-06T07:14:01.688Z,66.50
2024-01-06T07:15:04.268Z,67.91
2024-01-06T07:16:11.840Z,68.23
2024-01-06T07:17:02.829Z,69.37
2024-01-06T07:18:02.649Z,70.71
2024-01-06T07:19:01.958Z,70.32
2024-01-06T07:20:02.516Z,70.01
2024-01-06T07:21:02.046Z,68.46
2024-01-06T07:22:03.727Z,66.60
2024-01-06T07:23:02.993Z,66.39
2024-01-06T07:24:02.931Z,66.06
2024-01-06T07:25:02.945Z,67.09
2024-01-06T07:26:01.724Z,68.33
2024-01-06T07:27:02.413Z,69.47
2024-01-06T07:28:02.966Z,70.19
2024-01-06T07:29:02.878Z,70.71
2024-01-06T07:30:01.058Z,68.74
2024-01-06T07:31:02.564Z,68.43
2024-01-06T07:32:02.348Z,69.47
2024-01-06T07:33:02.481Z,69.78
2024-01-06T07:34:01.185Z,68.57
2024-01-06T07:35:05.138Z,66.91
2024-01-06T07:36:03.798Z,67.40
2024-01-06T07:37:02.318Z,68.23
2024-01-06T07:38:01.581Z,69.06
2024-01-06T07:39:02.194Z,69.67
2024-01-06T07:40:02.278Z,68.85
2024-01-06T07:41:02.253Z,68.23
2024-01-06T07:42:01.479Z,66.50
2024-01-06T07:43:02.197Z,66.99
2024-01-06T07:44:02.142Z,68.02
2024-01-06T07:45:02.150Z,67.19
2024-01-06T07:46:00.781Z,67.61
2024-01-06T07:47:01.403Z,67.30
2024-01-06T07:48:02.366Z,67.19
2024-01-06T07:49:02.256Z,68.95
2024-01-06T07:50:01.390Z,69.57
2024-01-06T07:51:02.096Z,69.06
2024-01-06T07:52:01.401Z,67.91
2024-01-06T07:53:02.002Z,68.95
2024-01-06T07:54:01.976Z,70.09
2024-01-06T07:55:01.390Z,69.37
2024-01-06T07:56:01.936Z,68.54
2024-01-06T07:57:01.953Z,69.88
2024-01-06T07:58:02.008Z,70.16
2024-01-06T07:59:01.223Z,71.09
2024-01-06T08:00:04.277Z,71.09
2024-01-06T08:01:02.024Z,72.22
2024-01-06T08:02:01.869Z,72.05
2024-01-06T08:03:01.862Z,70.29
2024-01-06T08:04:02.013Z,69.78
2024-01-06T08:05:01.164Z,68.95
2024-01-06T08:06:01.200Z,68.85
2024-01-06T08:07:01.920Z,69.67
2024-01-06T08:08:01.164Z,69.78
2024-01-06T08:09:01.085Z,69.47
2024-01-06T08:10:01.886Z,68.85
2024-01-06T08:11:01.793Z,69.16
2024-01-06T08:12:01.714Z,68.33
2024-01-06T08:13:01.100Z,68.23
2024-01-06T08:14:00.403Z,69.06
2024-01-06T08:15:01.707Z,68.30
2024-01-06T08:16:01.717Z,68.92
2024-01-06T08:17:01.670Z,67.58
2024-01-06T08:18:01.056Z,68.23
2024-01-06T08:19:01.794Z,66.36
2024-01-06T08:20:00.696Z,65.23
2024-01-06T08:21:00.961Z,65.54
2024-01-06T08:22:00.320Z,62.02
2024-01-06T08:23:00.864Z,60.89
2024-01-06T08:24:00.892Z,60.89
2024-01-06T08:25:00.934Z,60.27
2024-01-06T08:26:01.558Z,59.85
2024-01-06T08:27:01.557Z,60.47
2024-01-06T08:28:00.272Z,60.47
2024-01-06T08:29:00.870Z,60.06
2024-01-06T08:30:01.604Z,58.92
2024-01-06T08:31:01.559Z,58.09
2024-01-06T08:32:00.349Z,57.27
2024-01-06T08:33:01.587Z,57.48
2024-01-06T08:34:00.747Z,58.72
2024-01-06T08:35:00.312Z,57.79
2024-01-06T08:36:00.045Z,58.59
2024-01-06T08:37:02.053Z,59.03
2024-01-06T08:38:01.947Z,57.79
2024-01-06T08:39:01.408Z,56.75
2024-01-06T08:40:02.027Z,58.17
2024-01-06T08:41:01.990Z,57.97
2024-01-06T08:42:02.552Z,59.44
2024-01-06T08:43:01.906Z,58.89
2024-01-06T08:43:59.903Z,58.59
2024-01-06T08:45:00.668Z,59.10
2024-01-06T08:46:01.366Z,59.20
2024-01-06T08:47:00.571Z,59.41
2024-01-06T08:48:00.714Z,59.31
2024-01-06T08:49:00.785Z,60.44
2024-01-06T08:50:01.478Z,60.65
2024-01-06T08:51:00.568Z,60.86
2024-01-06T08:52:01.316Z,61.35
2024-01-06T08:53:00.509Z,62.38
2024-01-06T08:54:01.175Z,63.10
2024-01-06T08:55:00.576Z,63.93
2024-01-06T08:56:00.439Z,63.72
2024-01-06T08:57:00.441Z,63.93
2024-01-06T08:58:00.528Z,63.51
2024-01-06T08:59:00.460Z,66.82
2024-01-06T08:59:59.674Z,63.10
2024-01-06T09:01:00.430Z,63.31
2024-01-06T09:02:01.110Z,61.55
2024-01-06T09:03:00.390Z,63.07
2024-01-06T09:04:01.152Z,65.66
2024-01-06T09:05:00.387Z,62.76
2024-01-06T09:06:01.004Z,62.79
2024-01-06T09:07:01.609Z,62.76
2024-01-06T09:07:59.583Z,63.39
2024-01-06T09:09:00.979Z,63.07
2024-01-06T09:10:01.079Z,64.62
2024-01-06T09:11:00.944Z,65.14
2024-01-06T09:12:00.238Z,65.34
2024-01-06T09:13:00.357Z,65.86
2024-01-06T09:14:00.185Z,65.86
2024-01-06T09:15:00.889Z,65.24
2024-01-06T09:16:01.947Z,60.91
2024-01-06T09:17:00.173Z,64.52
2024-01-06T09:18:00.952Z,63.69
2024-01-06T09:19:00.291Z,65.45
2024-01-06T09:20:00.211Z,65.62
2024-01-06T09:21:00.159Z,68.00
2024-01-06T09:22:02.119Z,66.97
2024-01-06T09:23:00.772Z,65.34
2024-01-06T09:23:59.825Z,63.59
2024-01-06T09:25:00.787Z,64.59
2024-01-06T09:26:00.718Z,64.49
2024-01-06T09:27:00.077Z,64.18
2024-01-06T09:28:00.061Z,65.62
2024-01-06T09:29:00.000Z,64.80
2024-01-06T09:29:59.346Z,66.24
2024-01-06T09:31:00.164Z,64.59
2024-01-06T09:31:59.921Z,65.94
2024-01-06T09:33:00.673Z,66.55
2024-01-06T09:34:00.697Z,66.94
2024-01-06T09:35:00.024Z,65.59
2024-01-06T09:36:01.129Z,67.03
2024-01-06T09:37:01.186Z,66.42
2024-01-06T09:37:59.900Z,68.17
2024-01-06T09:38:59.888Z,74.60
2024-01-06T09:39:59.270Z,70.78
2024-01-06T09:40:59.850Z,67.97
2024-01-06T09:41:59.865Z,72.23
2024-01-06T09:42:59.847Z,72.13
2024-01-06T09:44:00.497Z,70.65
2024-01-06T09:44:59.841Z,70.37
2024-01-06T09:46:00.544Z,68.90
2024-01-06T09:46:59.769Z,68.27
2024-01-06T09:48:00.535Z,68.59
2024-01-06T09:49:00.648Z,70.86
2024-01-06T09:50:00.439Z,73.33
2024-01-06T09:51:00.381Z,73.74
2024-01-06T09:52:00.542Z,73.43
2024-01-06T09:53:00.370Z,75.95
2024-01-06T09:54:01.028Z,71.71
2024-01-06T09:54:59.683Z,70.23
2024-01-06T09:55:59.635Z,70.03
2024-01-06T09:57:00.297Z,69.31
2024-01-06T09:57:59.919Z,68.48
2024-01-06T09:59:00.355Z,72.54
2024-01-06T10:00:00.354Z,68.93
2024-01-06T10:01:00.429Z,68.82
2024-01-06T10:02:00.292Z,67.38
2024-01-06T10:02:59.528Z,67.14
2024-01-06T10:03:59.645Z,66.66
2024-01-06T10:05:00.362Z,67.45
2024-01-06T10:05:59.546Z,67.24
2024-01-06T10:07:00.258Z,69.41
2024-01-06T10:07:59.476Z,69.03
2024-01-06T10:08:59.458Z,67.86
2024-01-06T10:10:00.307Z,69.20
2024-01-06T10:10:59.436Z,69.93
2024-01-06T10:12:00.164Z,73.02
2024-01-06T10:13:00.102Z,74.29
2024-01-06T10:14:00.069Z,69.93
2024-01-06T10:14:59.437Z,69.31
2024-01-06T10:15:59.062Z,69.82
2024-01-06T10:16:59.328Z,70.03
2024-01-06T10:17:59.418Z,67.35
2024-01-06T10:19:00.214Z,68.48
2024-01-06T10:20:00.051Z,70.44
2024-01-06T10:20:59.988Z,70.03
2024-01-06T10:21:59.974Z,70.13
2024-01-06T10:22:59.976Z,71.37
2024-01-06T10:23:58.579Z,71.58
2024-01-06T10:24:59.945Z,70.54
2024-01-06T10:26:02.157Z,72.50
2024-01-06T10:26:59.216Z,72.50
2024-01-06T10:27:59.267Z,73.02
2024-01-06T10:28:59.889Z,70.54
2024-01-06T10:29:59.884Z,69.48
2024-01-06T10:31:00.075Z,69.89
2024-01-06T10:31:59.941Z,69.48
2024-01-06T10:32:59.238Z,70.51
2024-01-06T10:34:00.013Z,71.82
2024-01-06T10:34:59.102Z,71.13
2024-01-06T10:35:59.787Z,74.84
2024-01-06T10:36:59.780Z,75.46
2024-01-06T10:37:59.759Z,73.05
2024-01-06T10:38:59.726Z,75.63
2024-01-06T10:39:59.815Z,84.33
2024-01-06T10:40:59.049Z,81.44
2024-01-06T10:41:58.966Z,78.55
2024-01-06T10:42:59.793Z,75.46
2024-01-06T10:43:59.651Z,73.78
2024-01-06T10:45:00.239Z,76.04
2024-01-06T10:46:00.336Z,77.69
2024-01-06T10:47:00.184Z,76.63
2024-01-06T10:48:00.292Z,79.61
2024-01-06T10:49:00.205Z,81.26
2024-01-06T10:50:01.422Z,81.67
2024-01-06T10:50:58.920Z,81.88
2024-01-06T10:52:00.318Z,87.34
2024-01-06T10:53:00.142Z,84.77
2024-01-06T10:53:58.202Z,86.31
2024-01-06T10:55:00.903Z,85.73
2024-01-06T10:56:00.047Z,84.08
2024-01-06T10:57:00.019Z,83.42
2024-01-06T10:57:58.836Z,88.41
2024-01-06T10:59:00.023Z,87.48
2024-01-06T11:00:00.001Z,83.98
2024-01-06T11:00:58.800Z,86.97
2024-01-06T11:01:59.411Z,84.19
2024-01-06T11:02:58.777Z,84.91
2024-01-06T11:03:59.580Z,85.42
2024-01-06T11:04:59.945Z,86.90
2024-01-06T11:05:58.175Z,82.89
2024-01-06T11:06:58.738Z,81.61
2024-01-06T11:07:59.340Z,79.96
2024-01-06T11:08:58.658Z,83.36
2024-01-06T11:09:58.091Z,83.67
2024-01-06T11:10:59.309Z,82.37
2024-01-06T11:11:59.277Z,81.65
2024-01-06T11:12:58.083Z,82.57
2024-01-06T11:13:59.252Z,84.12
2024-01-06T11:14:58.559Z,81.44
2024-01-06T11:15:58.676Z,81.51
2024-01-06T11:16:59.351Z,82.12
2024-01-06T11:17:59.540Z,82.54
2024-01-06T11:18:58.580Z,85.11
2024-01-06T11:19:59.213Z,82.95
2024-01-06T11:20:58.479Z,83.87
2024-01-06T11:21:59.270Z,83.98
2024-01-06T11:22:58.433Z,84.80
2024-01-06T11:23:59.102Z,85.42
2024-01-06T11:24:58.669Z,85.07
2024-01-06T11:25:58.405Z,90.84
2024-01-06T11:26:59.107Z,89.61
2024-01-06T11:27:59.110Z,87.24
2024-01-06T11:28:59.070Z,94.55
2024-01-06T11:29:59.021Z,89.29
2024-01-06T11:30:59.134Z,89.36
2024-01-06T11:31:58.485Z,91.21
2024-01-06T11:32:58.342Z,92.24
2024-01-06T11:33:58.352Z,89.87
2024-01-06T11:34:58.362Z,92.40
2024-01-06T11:35:58.958Z,93.74
2024-01-06T11:36:58.290Z,94.87
2024-01-06T11:37:58.937Z,93.59
2024-01-06T11:38:58.890Z,96.99
2024-01-06T11:39:58.265Z,97.96
2024-01-06T11:40:58.905Z,96.68
2024-01-06T11:41:58.847Z,95.14
2024-01-06T11:42:58.251Z,95.86
2024-01-06T11:43:58.827Z,99.97
2024-01-06T11:44:58.143Z,99.99
2024-01-06T11:45:58.851Z,98.22
2024-01-06T11:46:58.100Z,99.46
2024-01-06T11:47:58.835Z,99.99
2024-01-06T11:48:58.850Z,99.99
2024-01-06T11:49:58.135Z,99.99
2024-01-06T11:50:58.049Z,99.99
2024-01-06T11:51:58.019Z,99.99
2024-01-06T11:52:58.695Z,99.99
2024-01-06T11:53:59.248Z,99.19
2024-01-06T11:54:59.255Z,99.99
2024-01-06T11:55:59.233Z,99.04
2024-01-06T11:56:59.202Z,97.39
2024-01-06T11:57:58.010Z,96.88
2024-01-06T11:58:58.630Z,97.80
2024-01-06T11:59:58.699Z,98.00
2024-01-06T12:00:58.136Z,96.88
2024-01-06T12:01:58.040Z,98.00
2024-01-06T12:02:58.560Z,96.88
2024-01-06T12:03:57.899Z,94.30
2024-01-06T12:04:58.587Z,96.97
2024-01-06T12:05:58.572Z,95.80
2024-01-06T12:06:58.594Z,96.62
2024-01-06T12:07:57.859Z,98.11
2024-01-06T12:08:58.500Z,99.14
2024-01-06T12:09:58.504Z,98.52
2024-01-06T12:10:57.830Z,97.80
2024-01-06T12:11:57.827Z,97.60
2024-01-06T12:12:57.887Z,97.60
2024-01-06T12:13:58.439Z,98.21
2024-01-06T12:14:58.422Z,95.64
2024-01-06T12:15:58.462Z,96.36
2024-01-06T12:16:57.753Z,99.24
2024-01-06T12:17:57.791Z,99.99
2024-01-06T12:18:58.439Z,99.99
2024-01-06T12:19:57.695Z,99.90
2024-01-06T12:20:58.320Z,99.99
2024-01-06T12:21:57.655Z,98.88
2024-01-06T12:22:58.291Z,99.70
2024-01-06T12:23:57.590Z,99.99
2024-01-06T12:24:57.618Z,95.17
2024-01-06T12:25:57.625Z,96.20
2024-01-06T12:26:58.244Z,95.12
2024-01-06T12:27:58.354Z,98.15
2024-01-06T12:28:57.576Z,96.71
2024-01-06T12:29:58.195Z,95.68
2024-01-06T12:30:58.231Z,95.99
2024-01-06T12:31:57.627Z,95.06
2024-01-06T12:32:58.236Z,93.52
2024-01-06T12:33:58.269Z,97.85
2024-01-06T12:34:56.839Z,97.43
2024-01-06T12:35:57.449Z,98.25
2024-01-06T12:36:57.500Z,95.12
2024-01-06T12:37:57.391Z,97.39
2024-01-06T12:38:58.099Z,97.08
2024-01-06T12:39:58.122Z,99.99
2024-01-06T12:40:58.060Z,97.69
2024-01-06T12:41:58.040Z,99.55
2024-01-06T12:42:57.400Z,98.21
2024-01-06T12:43:58.013Z,99.76
2024-01-06T12:44:58.000Z,99.99
2024-01-06T12:45:57.982Z,99.99
2024-01-06T12:46:57.968Z,99.99
2024-01-06T12:47:57.397Z,99.99
2024-01-06T12:48:57.363Z,99.86
2024-01-06T12:49:57.941Z,99.99
2024-01-06T12:50:57.890Z,99.99
2024-01-06T12:51:58.011Z,99.99